Time;durP1;ratioP1;P1;durP2;ratioP2;P2;SDS_P1;SDS_P2;PMS_P1;PMS_P2;Temp;Humidity;BMP_temperature;BMP_pressure;BME280_temperature;BME280_humidity;BME280_pressure;Samples;Min_cycle;Max_cycle;Signal;HPM_P1;HPM_P2
2023/01/05 00:03:08;;;;;;;13.13;5.93;;;;;;;-12.11;71.45;100031.00;4877825;28;19932;-69
2023/01/05 00:05:49;;;;;;;14.90;5.53;;;;;;;-12.51;69.84;100013.97;4883186;28;20391;-68
2023/01/05 00:08:36;;;;;;;28.58;10.60;;;;;;;-12.21;72.76;100024.44;4907842;28;20103;-69
2023/01/05 00:23:50;;;;;;;10.93;5.22;;;;;;;-11.26;70.13;100019.91;4940512;28;20052;-71
2023/01/05 00:26:41;;;;;;;11.52;4.38;;;;;;;-11.24;68.91;100018.38;4938255;28;20080;-69
2023/01/05 00:35:27;;;;;;;9.18;2.70;;;;;;;-11.14;68.03;100015.69;4915555;28;20054;-70
2023/01/05 00:38:22;;;;;;;5.88;3.15;;;;;;;-11.20;68.03;100016.16;4904551;28;20059;-69
2023/01/05 00:41:23;;;;;;;4.53;2.75;;;;;;;-11.08;68.17;100021.13;4925823;28;20134;-70
2023/01/05 00:44:18;;;;;;;5.25;2.33;;;;;;;-10.76;68.93;100017.28;4938871;28;20052;-70
2023/01/05 00:46:53;;;;;;;2.70;2.47;;;;;;;-10.44;69.00;100006.69;4923267;28;20045;-70
2023/01/05 00:49:56;;;;;;;10.75;4.25;;;;;;;-10.23;67.95;100014.72;4941421;28;20044;-69
2023/01/05 00:52:55;;;;;;;14.90;7.78;;;;;;;-9.69;69.91;100006.19;4944714;28;20059;-69
2023/01/05 00:55:52;;;;;;;7.72;2.20;;;;;;;-9.49;68.06;100009.03;4907504;28;20129;-67
2023/01/05 00:58:50;;;;;;;2.75;2.38;;;;;;;-9.52;65.49;100013.94;4947477;28;20036;-70
2023/01/05 01:01:40;;;;;;;2.80;2.15;;;;;;;-9.47;64.93;100013.41;4857818;28;20056;-69
2023/01/05 01:04:47;;;;;;;7.53;2.03;;;;;;;-10.04;64.33;99891.22;4945861;28;20049;-70
2023/01/05 01:07:40;;;;;;;5.15;2.33;;;;;;;-8.98;65.10;99995.16;4882991;28;20044;-68
2023/01/05 01:10:31;;;;;;;11.13;3.83;;;;;;;-8.80;63.46;100002.91;4909110;28;20041;-68
2023/01/05 01:13:08;;;;;;;10.60;3.88;;;;;;;-8.55;63.55;100007.69;4885255;28;20061;-68
2023/01/05 01:15:44;;;;;;;5.22;2.67;;;;;;;-8.41;62.55;100004.25;4950130;28;20101;-68
2023/01/05 01:18:25;;;;;;;4.68;1.90;;;;;;;-8.14;62.55;100016.63;4951067;28;20055;-67
2023/01/05 01:21:03;;;;;;;3.80;2.83;;;;;;;-7.95;62.48;100014.28;4872333;28;20052;-67
2023/01/05 01:23:59;;;;;;;2.28;1.80;;;;;;;-7.89;61.75;100014.59;4891496;28;20056;-68
2023/01/05 01:26:46;;;;;;;5.63;2.88;;;;;;;-8.02;60.28;100012.22;4926201;28;20103;-69
2023/01/05 01:29:43;;;;;;;8.57;2.40;;;;;;;-7.87;62.00;100017.22;4945025;28;20044;-68
2023/01/05 01:32:44;;;;;;;6.35;2.00;;;;;;;-7.77;61.30;100011.00;4917006;28;20049;-69
2023/01/05 01:35:33;;;;;;;3.40;1.63;;;;;;;-7.76;60.42;100011.09;4935062;28;20064;-68
2023/01/05 01:38:39;;;;;;;4.90;2.45;;;;;;;-7.64;60.01;99995.59;4934876;28;20191;-68
2023/01/05 01:41:27;;;;;;;5.13;2.22;;;;;;;-7.41;60.26;100000.22;4902632;28;20158;-68
2023/01/05 01:44:22;;;;;;;;;;;;;;;-7.50;58.20;99999.72;4889067;28;20119;-68
2023/01/05 01:47:17;;;;;;;6.97;3.38;;;;;;;-7.58;59.37;99980.72;4910998;28;20154;-67
2023/01/05 01:50:10;;;;;;;4.78;1.70;;;;;;;-7.64;58.07;99995.59;4906475;28;20114;-67
2023/01/05 01:52:59;;;;;;;5.68;2.65;;;;;;;-7.64;58.50;99980.38;4906041;28;20051;-67
2023/01/05 01:56:08;;;;;;;8.23;2.45;;;;;;;-7.34;60.91;99980.19;4886774;28;20040;-67
2023/01/05 01:59:04;;;;;;;4.47;1.77;;;;;;;-7.25;58.77;99980.66;4901571;28;20065;-66
2023/01/05 02:07:46;;;;;;;4.53;1.73;;;;;;;-7.39;58.19;99983.41;4927597;28;20066;-68
2023/01/05 02:10:35;;;;;;;3.15;1.95;;;;;;;-7.27;58.71;99967.03;4920435;28;20051;-68
2023/01/05 02:13:46;;;;;;;2.33;1.40;;;;;;;-6.99;57.67;99972.69;4937830;28;20046;-65
2023/01/05 02:16:40;;;;;;;3.15;1.77;;;;;;;-7.03;57.30;99978.41;4931785;28;20038;-66
2023/01/05 02:20:25;;;;;;;3.50;1.63;;;;;;;-7.25;56.56;99980.66;4940356;28;20048;-66
2023/01/05 02:24:02;;;;;;;3.30;1.60;;;;;;;-7.48;56.72;99970.22;4935725;28;20055;-65
2023/01/05 02:27:35;;;;;;;2.13;1.73;;;;;;;-7.81;57.68;99972.78;4923540;28;20114;-66
2023/01/05 02:30:42;;;;;;;1.60;1.50;;;;;;;-7.90;57.75;99967.22;4915333;28;20517;-67
2023/01/05 02:33:32;;;;;;;;;;;;;;;-7.91;57.84;99960.41;4890115;28;20074;-67
2023/01/05 02:36:34;;;;;;;3.47;1.85;;;;;;;-7.95;57.66;99955.97;4885617;28;19924;-67
2023/01/05 02:39:40;;;;;;;4.35;1.80;;;;;;;-7.87;57.78;99952.16;4909823;28;20036;-69
2023/01/05 02:42:20;;;;;;;2.58;1.88;;;;;;;-7.81;57.96;99952.50;4951226;28;20442;-67
2023/01/05 02:45:14;;;;;;;5.82;2.03;;;;;;;-7.98;57.39;99933.00;4967192;28;20100;-66
2023/01/05 02:48:16;;;;;;;5.18;2.05;;;;;;;-7.83;57.72;99943.94;4923271;28;20062;-69
2023/01/05 02:51:05;;;;;;;3.65;1.98;;;;;;;-7.77;57.38;99938.28;4918378;28;20787;-66
2023/01/05 02:54:08;;;;;;;6.95;2.53;;;;;;;-7.79;57.72;99928.88;4931084;28;20067;-67
2023/01/05 02:57:04;;;;;;;4.13;1.77;;;;;;;-7.55;58.25;99937.72;4901432;28;20067;-67
2023/01/05 03:00:01;;;;;;;5.15;1.88;;;;;;;-7.28;59.22;99922.13;4862201;28;20248;-69
2023/01/05 03:03:08;;;;;;;2.67;1.70;;;;;;;-7.03;58.79;99937.75;4872848;28;20049;-66
2023/01/05 03:06:03;;;;;;;4.28;2.20;;;;;;;-6.81;57.75;99934.59;4827678;28;20071;-67
2023/01/05 03:09:14;;;;;;;9.60;2.60;;;;;;;-6.75;56.18;99928.91;4917381;28;20063;-67
2023/01/05 03:18:08;;;;;;;4.93;1.70;;;;;;;-6.80;56.42;99948.16;4915182;28;20083;-68
2023/01/05 03:36:28;;;;;;;4.70;2.20;;;;;;;-6.76;55.31;99876.38;4916062;28;20037;-68
2023/01/05 03:39:09;;;;;;;11.00;3.50;;;;;;;-6.49;55.16;99936.88;4870921;28;20073;-68
2023/01/05 03:42:13;;;;;;;8.60;3.80;;;;;;;-7.04;55.36;99900.47;4918297;28;20045;-66
2023/01/05 03:47:51;;;;;;;2.00;1.77;;;;;;;-7.34;57.34;99942.13;4926870;28;20047;-68
2023/01/05 03:51:09;;;;;;;3.30;1.65;;;;;;;-7.40;57.90;99951.19;4891158;28;20040;-67
2023/01/05 03:54:10;;;;;;;2.08;1.48;;;;;;;-7.31;57.75;99944.81;4880805;28;20095;-68
2023/01/05 03:57:08;;;;;;;3.22;1.92;;;;;;;-7.30;57.88;99951.66;4890862;28;20044;-66
2023/01/05 04:00:02;;;;;;;3.03;1.75;;;;;;;-7.21;58.42;99958.06;4906387;28;20065;-67
2023/01/05 04:03:01;;;;;;;2.78;1.90;;;;;;;-7.17;58.65;99938.75;4860711;28;20045;-66
2023/01/05 04:05:54;;;;;;;5.85;1.67;;;;;;;-7.27;58.13;99936.56;4900039;28;20080;-67
2023/01/05 04:08:35;;;;;;;4.10;1.70;;;;;;;-7.47;58.71;99949.13;4816870;28;20262;-65
2023/01/05 04:11:28;;;;;;;4.90;1.88;;;;;;;-7.61;59.95;99939.97;4872414;28;20061;-68
2023/01/05 04:14:07;;;;;;;4.40;1.65;;;;;;;-7.82;59.99;99950.72;4812300;28;20108;-67
2023/01/05 04:19:42;;;;;;;3.42;2.50;;;;;;;-8.05;60.66;99948.69;4808581;28;20046;-67
2023/01/05 04:22:23;;;;;;;3.08;1.83;;;;;;;-8.03;60.33;99959.78;4859361;28;20057;-67
2023/01/05 04:25:23;;;;;;;3.60;2.08;;;;;;;-8.02;60.40;99956.44;4844222;28;20051;-69
2023/01/05 04:28:08;;;;;;;4.38;1.98;;;;;;;-7.93;60.36;99967.06;4837087;28;20239;-68
2023/01/05 04:31:09;;;;;;;4.70;1.90;;;;;;;-7.94;59.76;99960.22;4882897;28;20077;-69
2023/01/05 04:33:55;;;;;;;5.97;1.92;;;;;;;-7.79;59.91;99962.69;4833117;28;20053;-68
2023/01/05 04:42:38;;;;;;;7.32;2.40;;;;;;;-7.56;60.05;99981.66;4889927;28;20052;-66
2023/01/05 04:45:12;;;;;;;5.57;2.58;;;;;;;-7.65;58.77;99978.66;4902117;28;20052;-68
2023/01/05 04:48:06;;;;;;;3.92;1.90;;;;;;;-7.82;59.17;99960.88;4875859;28;20053;-66
2023/01/05 04:54:21;;;;;;;4.57;2.00;;;;;;;-7.76;59.57;99974.66;4865015;28;20045;-67
2023/01/05 04:57:08;;;;;;;4.20;1.90;;;;;;;-7.77;60.44;99967.88;4881431;28;20108;-68
2023/01/05 04:59:51;;;;;;;3.95;1.80;;;;;;;-7.70;60.41;99969.94;4859634;28;20051;-66
2023/01/05 05:02:48;;;;;;;2.55;1.77;;;;;;;-7.55;61.45;99973.25;4832951;28;20356;-68
2023/01/05 05:05:35;;;;;;;6.03;1.98;;;;;;;-7.57;58.75;99972.28;4862313;28;21229;-68
2023/01/05 05:08:22;;;;;;;5.47;1.98;;;;;;;-7.46;59.44;99981.34;4885234;28;20060;-67
2023/01/05 05:11:19;;;;;;;7.05;2.00;;;;;;;-7.39;58.51;99980.88;4889545;28;20057;-65
2023/01/05 05:14:21;;;;;;;4.65;1.80;;;;;;;-7.59;58.87;99984.03;4857983;28;20047;-66
2023/01/05 05:17:00;;;;;;;3.35;1.77;;;;;;;-7.67;59.10;99995.44;4817330;28;20042;-66
2023/01/05 05:19:45;;;;;;;3.88;2.00;;;;;;;-7.67;60.38;99990.38;4852496;28;20046;-69
2023/01/05 05:22:33;;;;;;;3.60;1.98;;;;;;;-7.63;59.93;99992.28;4819338;28;20053;-67
2023/01/05 05:25:28;;;;;;;9.02;2.15;;;;;;;-7.78;60.38;99956.00;4869922;28;20054;-67
2023/01/05 05:28:43;;;;;;;3.15;1.80;;;;;;;-7.74;60.17;99973.09;4853295;28;20066;-68
2023/01/05 05:31:55;;;;;;;4.00;2.00;;;;;;;-7.76;60.87;99984.81;4809574;28;20050;-68
2023/01/05 05:38:42;;;;;;;6.50;2.50;;;;;;;-7.81;61.55;99998.16;4888127;28;20367;-68
2023/01/05 05:41:45;;;;;;;4.63;2.05;;;;;;;-8.01;62.19;99993.69;4883773;28;20163;-67
2023/01/05 05:44:34;;;;;;;4.40;2.00;;;;;;;-7.85;61.91;100006.38;4899760;28;20044;-69
2023/01/05 05:47:29;;;;;;;3.38;1.92;;;;;;;-7.95;62.42;100004.16;4941498;28;20108;-68
2023/01/05 05:50:14;;;;;;;2.97;1.80;;;;;;;-8.04;62.96;100013.78;4906026;28;20060;-66
2023/01/05 05:53:08;;;;;;;11.23;4.15;;;;;;;-8.06;63.19;100015.41;4876533;28;20055;-66
2023/01/05 05:55:56;;;;;;;9.80;3.80;;;;;;;-7.98;63.03;100013.28;4844724;28;20440;-68
2023/01/05 05:58:45;;;;;;;9.30;2.90;;;;;;;-7.94;62.80;100022.78;4916290;28;20116;-67
2023/01/05 06:01:35;;;;;;;7.07;2.42;;;;;;;-7.95;63.23;100028.66;4907956;28;20045;-68
2023/01/05 06:04:21;;;;;;;4.00;2.00;;;;;;;-8.05;63.39;100024.75;4917948;28;20402;-68
2023/01/05 06:07:21;;;;;;;7.32;2.20;;;;;;;-8.04;64.05;100029.00;4907199;28;20048;-67
2023/01/05 06:10:36;;;;;;;12.40;2.17;;;;;;;-8.10;64.67;100026.16;4859554;28;20053;-66
2023/01/05 06:13:43;;;;;;;5.55;2.50;;;;;;;-8.21;65.55;100012.00;4931247;28;20107;-67
2023/01/05 06:16:53;;;;;;;5.88;2.13;;;;;;;-8.20;65.37;100023.91;4914729;28;20117;-67
2023/01/05 06:19:59;;;;;;;7.63;2.10;;;;;;;-8.18;66.20;100029.94;4905180;28;20044;-67
2023/01/05 06:22:38;;;;;;;5.30;1.98;;;;;;;-8.08;67.35;100037.25;4920390;28;20297;-67
2023/01/05 06:25:28;;;;;;;2.38;1.88;;;;;;;-8.10;66.81;100033.75;4924620;28;20036;-68
2023/01/05 06:31:18;;;;;;;3.70;1.88;;;;;;;-8.28;66.95;100024.38;4941736;28;20071;-67
2023/01/05 06:34:24;;;;;;;11.40;2.30;;;;;;;-8.20;67.53;100034.06;4915728;28;20058;-68
2023/01/05 06:37:07;;;;;;;6.95;3.10;;;;;;;-8.16;67.90;100038.47;4935390;28;20043;-67
2023/01/05 06:39:55;;;;;;;8.77;2.92;;;;;;;-8.07;68.76;100029.72;4913480;28;20547;-69
2023/01/05 06:42:39;;;;;;;4.20;2.25;;;;;;;-8.05;68.82;100029.81;4870164;28;20040;-68
2023/01/05 06:45:30;;;;;;;5.95;2.88;;;;;;;-8.11;68.81;100032.00;4921050;28;20054;-68
2023/01/05 06:51:21;;;;;;;;;;;;;;;;;;;;;
2023/01/05 06:53:59;;;;;;;10.43;3.67;;;;;;;-8.32;70.36;100032.59;4842798;28;20054;-68
2023/01/05 06:57:03;;;;;;;9.18;4.05;;;;;;;-8.48;71.05;100030.03;4900063;28;20039;-67
2023/01/05 07:00:05;;;;;;;5.68;3.00;;;;;;;-8.43;71.77;100048.91;4942299;28;20044;-68
2023/01/05 07:06:42;;;;;;;25.13;7.80;;;;;;;-8.59;72.30;100051.34;4818984;28;20093;-67
2023/01/05 07:09:25;;;;;;;17.02;6.40;;;;;;;-8.66;73.08;100049.25;4821590;28;20358;-67
2023/01/05 07:15:08;;;;;;;16.98;5.60;;;;;;;-8.80;73.17;100035.81;4845340;28;20453;-67
2023/01/05 07:17:47;;;;;;;6.28;3.42;;;;;;;-8.70;73.27;100054.16;4880116;28;20039;-67
2023/01/05 07:20:41;;;;;;;5.05;2.00;;;;;;;-8.67;72.42;100050.91;4843641;28;20053;-67
2023/01/05 07:26:37;;;;;;;8.40;2.72;;;;;;;-8.47;72.77;100057.09;4808392;28;20054;-67
2023/01/05 07:29:40;;;;;;;9.90;3.05;;;;;;;-8.48;72.42;100060.44;4811248;28;20053;-66
2023/01/05 07:35:20;;;;;;;3.45;1.95;;;;;;;-8.48;72.24;100050.31;4835788;28;20060;-66
2023/01/05 07:38:03;;;;;;;3.83;2.10;;;;;;;-8.38;72.29;100057.59;4825333;28;20050;-67
2023/01/05 07:41:17;;;;;;;;;;;;;;;-8.37;72.37;100059.34;4928086;28;20256;-69
2023/01/05 07:44:02;;;;;;;5.35;1.83;;;;;;;-8.47;71.97;100057.09;4892298;28;19915;-66
2023/01/05 07:46:51;;;;;;;8.95;2.67;;;;;;;-8.50;72.22;100073.00;4950470;28;20036;-66
2023/01/05 07:49:30;;;;;;;4.68;2.83;;;;;;;-8.50;72.39;100064.53;4936459;28;20581;-68
2023/01/05 07:52:27;;;;;;;10.55;3.28;;;;;;;-8.53;72.59;100064.38;4920789;28;20048;-68
2023/01/05 07:55:09;;;;;;;6.65;2.60;;;;;;;-8.46;72.27;100069.00;4921000;28;20053;-68
2023/01/05 07:58:12;;;;;;;11.05;3.40;;;;;;;-8.47;72.17;100072.31;4877136;28;20071;-67
2023/01/05 08:01:17;;;;;;;7.03;2.90;;;;;;;-8.51;72.46;100072.91;4886838;28;20052;-67
2023/01/05 08:04:02;;;;;;;7.65;2.83;;;;;;;-8.59;72.37;100066.56;4953408;28;20069;-65
2023/01/05 08:06:45;;;;;;;6.85;3.05;;;;;;;-8.59;72.41;100071.63;4945988;28;20052;-66
2023/01/05 08:15:48;;;;;;;4.82;2.20;;;;;;;-8.69;73.11;100081.22;4928738;28;20051;-65
2023/01/05 08:18:30;;;;;;;12.18;4.05;;;;;;;-8.75;73.02;100055.56;4910572;28;20056;-65
2023/01/05 08:21:16;;;;;;;21.98;5.25;;;;;;;-8.76;73.12;100069.03;4926347;28;20070;-64
2023/01/05 08:24:14;;;;;;;17.50;4.38;;;;;;;-8.77;73.07;100082.44;4890707;28;20058;-65
2023/01/05 08:27:37;;;;;;;6.18;2.40;;;;;;;-8.78;72.89;100085.78;4923476;28;20048;-64
2023/01/05 08:30:43;;;;;;;5.95;2.03;;;;;;;-8.96;72.13;100069.50;4916303;28;20090;-65
2023/01/05 08:33:33;;;;;;;4.68;2.13;;;;;;;-8.87;71.92;100090.31;4946045;28;20064;-65
2023/01/05 08:36:22;;;;;;;4.78;2.40;;;;;;;-8.87;71.98;100102.97;4943867;28;20063;-64
2023/01/05 08:39:24;;;;;;;27.75;7.70;;;;;;;-8.91;72.06;100088.38;4889402;28;20079;-65
2023/01/05 08:42:19;;;;;;;8.40;4.00;;;;;;;-8.70;73.76;100089.63;4879234;28;20044;-65
2023/01/05 08:45:00;;;;;;;8.82;2.90;;;;;;;-8.66;72.45;100099.91;4936993;28;20310;-64
2023/01/05 08:47:55;;;;;;;8.52;2.35;;;;;;;-8.71;72.21;100095.47;4922762;28;20107;-64
2023/01/05 08:50:53;;;;;;;6.40;2.50;;;;;;;-8.83;71.26;100099.84;4943482;28;20040;-65
2023/01/05 08:53:44;;;;;;;4.57;1.85;;;;;;;-8.91;70.92;100103.56;4963130;28;20514;-65
2023/01/05 08:56:33;;;;;;;8.52;2.35;;;;;;;-9.05;70.95;100109.50;4916526;28;20376;-64
2023/01/05 08:59:16;;;;;;;5.80;2.92;;;;;;;-9.07;71.08;100101.78;4877363;28;20133;-65
2023/01/05 09:02:01;;;;;;;18.63;7.65;;;;;;;-9.07;71.59;100100.94;4941035;28;20054;-65
2023/01/05 09:08:00;;;;;;;11.60;2.92;;;;;;;-9.31;71.73;100096.13;4922622;28;20047;-65
2023/01/05 09:10:52;;;;;;;11.13;3.67;;;;;;;-9.38;71.91;100089.00;4931238;28;20306;-65
2023/01/05 09:13:46;;;;;;;5.00;2.22;;;;;;;-9.53;72.35;100088.94;4953948;28;20060;-65
2023/01/05 09:16:31;;;;;;;5.72;2.47;;;;;;;-9.80;72.48;100063.72;4941197;28;20049;-65
2023/01/05 09:19:37;;;;;;;8.38;2.38;;;;;;;-9.57;72.67;100102.16;4914504;28;20538;-64
2023/01/05 09:22:35;;;;;;;6.18;2.60;;;;;;;-9.56;73.27;100104.81;4904181;28;20050;-64
2023/01/05 09:25:14;;;;;;;8.60;2.13;;;;;;;-9.50;73.83;100105.97;4893470;28;20101;-64
2023/01/05 09:28:07;;;;;;;5.63;2.05;;;;;;;-9.47;73.70;100108.66;4922109;28;20065;-65
2023/01/05 09:30:50;;;;;;;5.15;2.40;;;;;;;-9.46;74.07;100105.34;4887595;28;20075;-66
2023/01/05 09:33:53;;;;;;;17.60;6.70;;;;;;;-9.49;74.34;100100.97;4865770;28;20037;-65
2023/01/05 09:36:39;;;;;;;72.93;25.55;;;;;;;-9.38;73.84;100107.56;4890904;28;20364;-65
2023/01/05 09:42:59;;;;;;;20.52;10.20;;;;;;;-10.11;73.85;100023.03;4923922;28;20116;-66
2023/01/05 09:45:50;;;;;;;8.70;4.07;;;;;;;-9.72;74.27;100107.16;4928055;28;20053;-68
2023/01/05 09:51:55;;;;;;;8.60;3.42;;;;;;;-10.26;74.01;100054.94;4836403;28;20109;-67
2023/01/05 09:54:58;;;;;;;5.15;2.70;;;;;;;-9.93;74.76;100133.63;4844168;28;20132;-67
2023/01/05 09:57:44;;;;;;;6.57;3.45;;;;;;;-10.01;74.85;100139.09;4794092;28;20070;-68
2023/01/05 10:01:05;;;;;;;5.95;2.28;;;;;;;-10.11;74.82;100120.72;4828353;28;20074;-68
2023/01/05 10:04:06;;;;;;;8.15;2.55;;;;;;;-9.85;75.55;100138.41;4812701;28;20101;-68
2023/01/05 10:07:20;;;;;;;4.35;2.33;;;;;;;-9.73;74.97;100135.78;4808553;28;21438;-68
2023/01/05 10:10:17;;;;;;;2.78;2.17;;;;;;;-9.72;74.70;100137.50;4839414;28;20051;-68
2023/01/05 10:13:19;;;;;;;7.57;2.28;;;;;;;-9.67;74.89;100146.25;4792376;28;20042;-68
2023/01/05 10:16:00;;;;;;;5.85;2.47;;;;;;;-9.57;74.78;100145.16;4829373;28;20050;-65
2023/01/05 10:18:36;;;;;;;2.53;2.10;;;;;;;-9.55;74.80;100147.00;4831565;28;20058;-67
2023/01/05 10:22:37;;;;;;;4.15;2.70;;;;;;;-9.61;74.59;100141.59;4806651;28;20063;-68
2023/01/05 10:26:09;;;;;;;4.03;2.30;;;;;;;-9.66;74.26;100153.06;4806849;28;20089;-67
2023/01/05 10:28:52;;;;;;;2.30;2.10;;;;;;;-9.71;74.56;100146.81;4894833;28;20044;-67
2023/01/05 10:31:51;;;;;;;6.28;2.38;;;;;;;-9.61;74.87;100171.94;4910405;28;20052;-68
2023/01/05 10:35:11;;;;;;;11.57;3.85;;;;;;;-9.60;75.30;100158.50;4877303;28;20056;-68
2023/01/05 10:45:08;;;;;;;6.05;2.92;;;;;;;-9.57;75.47;100160.34;4889764;28;20044;-69
2023/01/05 10:47:46;;;;;;;3.50;2.00;;;;;;;-9.85;75.78;100109.72;4852556;28;20059;-70
2023/01/05 10:50:51;;;;;;;6.22;2.22;;;;;;;-9.47;76.27;100164.31;4883080;28;20068;-67
2023/01/05 10:53:38;;;;;;;14.07;5.40;;;;;;;-9.46;76.25;100161.91;4832504;28;20295;-69
2023/01/05 10:56:38;;;;;;;7.25;3.15;;;;;;;-9.47;76.35;100164.31;4914477;28;20068;-67
2023/01/05 10:59:27;;;;;;;7.07;3.10;;;;;;;-9.39;77.16;100158.06;4911147;28;20053;-68
2023/01/05 11:02:17;;;;;;;5.13;2.70;;;;;;;-9.16;77.73;100167.94;4910629;28;20055;-67
2023/01/05 11:05:33;;;;;;;7.82;3.33;;;;;;;-9.14;76.77;100171.41;4899170;28;20048;-66
2023/01/05 11:08:36;;;;;;;26.13;8.98;;;;;;;-9.19;76.56;100177.84;4859174;28;20052;-66
2023/01/05 11:11:41;;;;;;;34.55;10.05;;;;;;;-9.25;76.75;100177.50;4864004;28;20097;-67
2023/01/05 11:14:49;;;;;;;26.60;7.20;;;;;;;-9.29;77.55;100162.91;4891482;28;20075;-68
2023/01/05 11:17:37;;;;;;;45.60;11.15;;;;;;;-9.25;77.48;100177.50;4907998;28;20048;-66
2023/01/05 11:20:20;;;;;;;28.92;8.73;;;;;;;-9.59;77.79;100119.78;4846052;28;20071;-70
2023/01/05 11:23:09;;;;;;;20.40;5.53;;;;;;;-9.28;77.65;100177.31;4918240;28;20092;-67
2023/01/05 11:29:19;;;;;;;23.67;8.73;;;;;;;-9.37;78.20;100177.63;4917082;28;20066;-68
2023/01/05 11:32:01;;;;;;;8.90;3.25;;;;;;;-9.36;78.41;100175.97;4899497;28;20106;-68
2023/01/05 11:34:44;;;;;;;6.13;3.10;;;;;;;-9.68;77.90;100139.47;4894397;28;20045;-68
2023/01/05 11:37:30;;;;;;;7.30;2.92;;;;;;;-9.73;78.12;100143.34;4917771;28;20116;-70
2023/01/05 11:40:18;;;;;;;4.28;2.53;;;;;;;-9.75;78.67;100157.56;4914372;28;20400;-70
2023/01/05 11:43:25;;;;;;;5.93;3.28;;;;;;;-9.46;78.64;100192.25;4911283;28;20102;-67
2023/01/05 11:46:16;;;;;;;15.98;6.00;;;;;;;-9.54;78.96;100180.75;4916785;28;20051;-69
2023/01/05 11:49:03;;;;;;;6.53;3.30;;;;;;;-9.50;78.97;100199.56;4922493;28;20094;-68
2023/01/05 11:51:56;;;;;;;6.82;2.92;;;;;;;-9.51;79.49;100195.25;4924342;28;20099;-68
2023/01/05 11:54:41;;;;;;;5.32;2.67;;;;;;;-9.54;79.42;100193.41;4900526;28;20349;-70
2023/01/05 11:57:59;;;;;;;2.40;1.90;;;;;;;-9.56;79.47;100190.81;4929179;28;20062;-68
2023/01/05 12:00:54;;;;;;;6.07;2.72;;;;;;;-9.48;79.30;100200.50;4914342;28;20053;-69
2023/01/05 12:03:53;;;;;;;5.85;2.88;;;;;;;-9.50;79.16;100204.63;4893435;28;20053;-69
2023/01/05 12:07:07;;;;;;;4.15;1.98;;;;;;;-9.41;79.27;100195.03;4897233;28;20059;-69
2023/01/05 12:10:21;;;;;;;9.30;2.40;;;;;;;-9.36;79.24;100196.19;4861000;28;20086;-68
2023/01/05 12:13:12;;;;;;;5.45;2.80;;;;;;;-9.37;78.70;100210.50;4861474;28;20224;-69
2023/01/05 12:16:25;;;;;;;4.70;1.85;;;;;;;-9.27;79.12;100194.25;4915604;28;20062;-68
2023/01/05 12:19:49;;;;;;;3.85;2.28;;;;;;;-9.23;78.69;100203.78;4907708;28;20044;-69
2023/01/05 12:23:20;;;;;;;4.35;2.80;;;;;;;-9.35;77.96;100208.09;4900303;28;20079;-70
2023/01/05 12:26:15;;;;;;;6.20;2.88;;;;;;;-9.47;77.86;100204.78;4846263;28;20055;-71
2023/01/05 12:30:01;;;;;;;4.35;2.63;;;;;;;-9.53;77.94;100210.34;4925453;28;20072;-68
2023/01/05 12:33:45;;;;;;;3.42;2.28;;;;;;;-9.48;78.63;100213.16;4846430;28;20085;-69
2023/01/05 12:37:23;;;;;;;9.48;4.07;;;;;;;-9.72;77.88;100212.50;4817842;28;20583;-72
2023/01/05 12:48:51;;;;;;;7.18;2.83;;;;;;;-10.67;78.05;100217.31;4840923;28;20100;-69
2023/01/05 12:51:37;;;;;;;7.22;3.95;;;;;;;-10.72;78.66;100214.50;4839474;28;20046;-71
2023/01/05 12:54:30;;;;;;;9.30;4.40;;;;;;;-10.92;79.03;100225.75;4843727;28;20077;-72
2023/01/05 12:57:21;;;;;;;11.20;5.00;;;;;;;-11.15;78.99;100215.75;4764289;29;20063;-71
2023/01/05 13:00:15;;;;;;;6.95;2.53;;;;;;;-11.29;78.95;100225.75;4817855;28;20038;-69
2023/01/05 13:02:59;;;;;;;8.27;2.53;;;;;;;-11.22;79.78;100233.75;4842075;28;20070;-69
2023/01/05 13:05:41;;;;;;;6.27;3.70;;;;;;;-11.07;80.56;100234.81;4837697;28;20054;-69
2023/01/05 13:08:33;;;;;;;7.43;3.13;;;;;;;-11.24;79.95;100220.16;4829898;28;20316;-69
2023/01/05 13:11:52;;;;;;;4.57;1.90;;;;;;;-11.16;80.63;100229.13;4932074;28;20102;-70
2023/01/05 13:14:59;;;;;;;5.13;2.00;;;;;;;-11.02;81.36;100240.19;4921101;28;20588;-69
2023/01/05 13:20:46;;;;;;;5.07;2.13;;;;;;;-10.98;81.31;100235.44;4877890;28;20055;-69
2023/01/05 13:23:38;;;;;;;6.97;1.83;;;;;;;-10.85;81.77;100232.13;4913348;28;20036;-69
2023/01/05 13:26:26;;;;;;;5.65;1.92;;;;;;;-10.74;81.79;100235.34;4928185;28;20068;-71
2023/01/05 13:29:21;;;;;;;4.35;2.10;;;;;;;-10.69;81.67;100244.97;4925077;28;20068;-71
2023/01/05 13:32:14;;;;;;;5.18;2.00;;;;;;;-10.61;81.82;100248.03;4901882;28;20041;-69
2023/01/05 13:35:22;;;;;;;6.38;1.90;;;;;;;-10.58;81.60;100243.19;4909253;28;20056;-69
2023/01/05 13:38:49;;;;;;;4.07;1.98;;;;;;;-10.59;81.76;100236.38;4888130;28;20048;-71
2023/01/05 13:41:49;;;;;;;6.68;1.92;;;;;;;-10.60;81.56;100244.75;4871595;28;20050;-69
2023/01/05 13:45:04;;;;;;;9.18;1.80;;;;;;;-10.59;81.64;100246.47;4906933;28;20052;-70
2023/01/05 13:47:56;;;;;;;2.90;1.73;;;;;;;-10.53;81.74;100256.09;4843272;28;20066;-71
2023/01/05 13:51:29;;;;;;;3.50;1.98;;;;;;;-10.64;81.35;100247.81;4875368;28;20124;-70
2023/01/05 13:57:55;;;;;;;4.82;1.88;;;;;;;-10.64;81.82;100242.78;4816597;28;20604;-71
2023/01/05 14:03:59;;;;;;;6.00;1.85;;;;;;;-10.98;80.54;100194.19;4810086;28;20039;-69
2023/01/05 14:06:43;;;;;;;2.55;1.85;;;;;;;-10.96;80.06;100238.94;4845276;28;20053;-69
2023/01/05 14:09:49;;;;;;;2.60;1.77;;;;;;;-11.11;81.09;100247.97;4786717;28;20069;-72
2023/01/05 14:13:09;;;;;;;3.58;2.05;;;;;;;-11.37;81.51;100191.56;4839555;28;20268;-71
2023/01/05 14:15:47;;;;;;;4.88;2.53;;;;;;;-10.98;82.10;100250.59;4807750;28;20100;-69
2023/01/05 14:18:58;;;;;;;8.50;3.42;;;;;;;-11.17;81.71;100207.19;4818163;28;20047;-69
2023/01/05 14:22:07;;;;;;;5.15;1.80;;;;;;;-10.62;82.46;100246.28;4828583;28;20058;-70
2023/01/05 14:24:54;;;;;;;14.85;4.20;;;;;;;-10.84;80.66;100248.13;4770321;28;20052;-70
2023/01/05 14:32:01;;;;;;;9.38;3.22;;;;;;;-11.03;81.99;100251.94;4776099;29;20129;-69
2023/01/05 14:37:40;;;;;;;22.10;7.25;;;;;;;-11.21;81.06;100245.59;4758495;29;20237;-70
2023/01/05 14:40:37;;;;;;;20.60;7.93;;;;;;;-11.42;81.10;100253.41;4748712;29;20064;-69
2023/01/05 14:43:41;;;;;;;4.75;3.60;;;;;;;-11.47;81.94;100256.38;4737966;29;20655;-70
2023/01/05 14:47:01;;;;;;;11.40;4.38;;;;;;;-11.35;82.53;100252.22;4674328;29;20188;-71
2023/01/05 14:50:02;;;;;;;9.35;3.38;;;;;;;-11.20;83.16;100253.28;4716505;29;20109;-71
2023/01/05 14:53:01;;;;;;;22.17;5.10;;;;;;;-10.45;84.65;100248.28;4731344;29;20059;-69
2023/01/05 14:56:02;;;;;;;14.52;4.90;;;;;;;-10.42;82.60;100251.00;4733116;29;20053;-67
2023/01/05 14:59:05;;;;;;;17.52;5.65;;;;;;;-10.52;82.44;100253.69;4745999;29;20063;-70
2023/01/05 15:02:07;;;;;;;19.52;5.00;;;;;;;-10.59;81.20;100246.47;4732216;28;20082;-70
2023/01/05 15:08:23;;;;;;;12.10;4.40;;;;;;;-11.63;81.00;100123.31;4807818;28;20054;-71
2023/01/05 15:12:01;;;;;;;24.67;8.00;;;;;;;-11.09;80.18;100259.06;4847333;28;20051;-70
2023/01/05 15:15:25;;;;;;;42.38;9.70;;;;;;;-11.43;80.85;100269.31;4861651;28;20360;-70
2023/01/05 15:18:30;;;;;;;29.63;9.18;;;;;;;-11.50;81.03;100272.19;4889221;28;20050;-71
2023/01/05 15:21:50;;;;;;;16.83;5.22;;;;;;;-11.59;81.46;100276.56;4874095;28;20234;-68
2023/01/05 15:25:32;;;;;;;58.00;14.20;;;;;;;-11.98;80.77;100280.50;4836798;28;20045;-69
2023/01/05 15:28:33;;;;;;;67.93;16.67;;;;;;;-12.32;80.89;100277.16;4840936;28;20051;-70
2023/01/05 15:31:32;;;;;;;27.35;6.82;;;;;;;-12.07;83.20;100279.84;4748346;28;20132;-70
2023/01/05 15:34:46;;;;;;;42.55;10.57;;;;;;;-11.95;83.18;100273.19;4802777;28;20089;-69
2023/01/05 15:37:56;;;;;;;24.50;7.97;;;;;;;-11.83;82.85;100276.56;4829486;28;20051;-69
2023/01/05 15:41:38;;;;;;;22.45;7.03;;;;;;;-11.87;82.44;100272.09;4802902;29;20043;-69
2023/01/05 15:47:12;;;;;;;11.48;3.85;;;;;;;-12.09;82.56;100276.31;4777689;29;20615;-70
2023/01/05 15:50:17;;;;;;;13.25;4.45;;;;;;;-11.85;84.40;100288.16;4750819;29;20553;-70
2023/01/05 15:52:59;;;;;;;19.30;5.90;;;;;;;-11.83;84.20;100266.47;4767940;29;20055;-70
2023/01/05 15:55:45;;;;;;;43.50;11.23;;;;;;;-11.68;83.50;100296.06;4759070;29;20051;-70
2023/01/05 15:58:42;;;;;;;9.73;3.95;;;;;;;-11.83;82.77;100296.72;4732026;29;20040;-69
2023/01/05 16:01:20;;;;;;;38.38;10.30;;;;;;;-11.94;82.35;100302.63;4721058;29;20047;-70
2023/01/05 16:04:20;;;;;;;19.58;6.88;;;;;;;-12.05;82.42;100303.50;4799786;29;20166;-70